»·PEaware :: N101DC KLGB-KSFO

N101DC :: KLGB-KSFO

FLIGHT INFORMATION

Flight Status: Arrived
Operator: Privately registered:
United States
More flights under this callsign
Pilot: Alex C. (14758)
Aircraft: BOMBARDIER BD-100 CHALLENGER 300
(CL30)
More flights by this aircraft type
Origin: KLGB Long Beach
United States
Destination: KSFO San Francisco Intl
United States
More flights between these airports :: More routes between these airports
Route: +HAWWC3 IKAYE RZS J88 ROBIE SERFR SERFR3
File this flight plan on PilotEdge
Remarks:
Altitude:
(Current/Filed)
30,000ft
Speed:
(Current/Filed)
450kts
Departed: 21-Oct-18 05:48 PM
Arrived: 21-Oct-18 07:06 PM
Distance/Time
Traveled:
308nm/1:18
Distance/Time
To Go:
Arrived

Flight Plot

Page will automatically refresh every two minutes.

Flight plan parsing failed; only flown route is shown


Map Options




Map Legend


Flown Route
Filed Route
Departure Airport
Arrival Airport
Navaid (VOR, NDB)
Fix

Horizontal Profiles

Position Reports

Time Latitude Longitude Heading Altitude Ground
Speed
21-Oct-18 17:29 33.816960 -118.146151 90 67ft 0kts
21-Oct-18 17:30 33.816960 -118.146151 90 67ft 0kts
21-Oct-18 17:31 33.816960 -118.146151 90 67ft 0kts
21-Oct-18 17:32 33.816960 -118.146151 90 67ft 0kts
21-Oct-18 17:33 33.816960 -118.146151 90 67ft 0kts
21-Oct-18 17:34 33.816960 -118.146151 90 67ft 0kts
21-Oct-18 17:35 33.816960 -118.146151 90 67ft 0kts
21-Oct-18 17:36 33.816960 -118.146151 90 67ft 0kts
21-Oct-18 17:37 33.817117 -118.146157 248 67ft 0kts
21-Oct-18 17:38 33.817117 -118.146157 248 67ft 0kts
21-Oct-18 17:39 33.817117 -118.146157 248 67ft 0kts
21-Oct-18 17:40 33.817117 -118.146157 248 67ft 0kts
21-Oct-18 17:41 33.817117 -118.146157 248 67ft 0kts
21-Oct-18 17:42 33.817117 -118.146157 248 67ft 0kts
21-Oct-18 17:43 33.817117 -118.146157 248 67ft 0kts
21-Oct-18 17:44 33.817117 -118.146157 248 67ft 0kts
21-Oct-18 17:45 33.814901 -118.146001 134 67ft 23kts
21-Oct-18 17:46 33.814523 -118.145540 134 67ft 0kts
21-Oct-18 17:47 33.814375 -118.145360 134 67ft 9kts
21-Oct-18 17:48 33.812353 -118.143262 215 67ft 0kts
21-Oct-18 17:49 33.812353 -118.143262 215 67ft 0kts
21-Oct-18 17:50 33.812473 -118.144949 314 67ft 48kts
21-Oct-18 17:51 33.829586 -118.165398 312 585ft 235kts
21-Oct-18 17:52 33.847745 -118.235906 281 3001ft 256kts
21-Oct-18 17:53 33.859001 -118.301025 281 3008ft 255kts
21-Oct-18 17:54 33.870212 -118.365705 281 3011ft 255kts
21-Oct-18 17:55 33.887155 -118.463201 281 3012ft 256kts
21-Oct-18 17:56 33.899528 -118.534122 280 3891ft 265kts
21-Oct-18 17:57 33.914926 -118.622666 281 6005ft 281kts
21-Oct-18 17:58 33.930771 -118.713457 280 6015ft 278kts
21-Oct-18 17:59 33.946731 -118.804703 280 6015ft 278kts
21-Oct-18 18:00 33.987920 -118.866748 8 7001ft 273kts
21-Oct-18 18:01 34.051160 -118.912139 319 8013ft 279kts
21-Oct-18 18:02 34.108924 -118.973804 319 9655ft 287kts
21-Oct-18 18:03 34.164516 -119.057335 302 12652ft 355kts
21-Oct-18 18:04 34.216185 -119.161657 302 16182ft 372kts
21-Oct-18 18:05 34.268969 -119.270069 303 20488ft 383kts
21-Oct-18 18:06 34.321379 -119.378414 302 23924ft 393kts
21-Oct-18 18:07 34.376805 -119.493500 302 26831ft 402kts
21-Oct-18 18:08 34.433370 -119.611414 300 29188ft 412kts
21-Oct-18 18:09 34.491599 -119.733322 299 29950ft 440kts
21-Oct-18 18:10 34.582262 -119.827819 322 29951ft 440kts
21-Oct-18 18:11 34.682365 -119.912925 323 29961ft 440kts
21-Oct-18 18:12 34.783021 -119.996810 323 29970ft 440kts
21-Oct-18 18:13 34.884153 -120.080939 323 29975ft 440kts
21-Oct-18 18:14 34.986874 -120.166591 324 29983ft 458kts
21-Oct-18 18:15 35.092916 -120.255246 324 29989ft 465kts
21-Oct-18 18:16 35.198524 -120.343790 324 29983ft 465kts
21-Oct-18 18:17 35.304994 -120.433366 324 29973ft 465kts
21-Oct-18 18:18 35.410994 -120.522844 324 29961ft 465kts
21-Oct-18 18:19 35.517678 -120.613192 324 29930ft 467kts
21-Oct-18 18:20 35.624029 -120.703551 324 29927ft 467kts
21-Oct-18 18:21 35.730523 -120.794333 324 29927ft 467kts
21-Oct-18 18:22 35.837119 -120.885505 324 29927ft 467kts
21-Oct-18 18:23 35.943474 -120.976967 322 29922ft 466kts
21-Oct-18 18:24 36.002641 -121.114336 291 29924ft 458kts
21-Oct-18 18:25 36.042821 -121.263732 289 29954ft 460kts
21-Oct-18 18:26 36.112112 -121.387458 323 30001ft 450kts
21-Oct-18 18:27 36.206658 -121.470020 328 27667ft 404kts
21-Oct-18 18:28 36.298486 -121.543849 329 24194ft 389kts
21-Oct-18 18:29 36.387485 -121.614151 330 20694ft 375kts
21-Oct-18 18:30 36.474496 -121.682726 329 20017ft 373kts
21-Oct-18 18:31 36.562134 -121.751955 329 20014ft 373kts
21-Oct-18 18:32 36.649429 -121.820974 329 20013ft 373kts
21-Oct-18 18:33 36.742688 -121.870588 344 20015ft 369kts
21-Oct-18 18:34 36.839703 -121.908773 344 18972ft 366kts
21-Oct-18 18:35 36.933649 -121.945869 344 15253ft 352kts
21-Oct-18 18:36 37.020570 -121.979789 343 11266ft 339kts
21-Oct-18 18:37 37.100394 -122.011010 343 8072ft 312kts
21-Oct-18 18:38 37.166499 -122.036931 343 8002ft 276kts
21-Oct-18 18:39 37.229841 -122.061624 340 8000ft 268kts
21-Oct-18 18:40 37.287800 -122.084450 341 6585ft 261kts
21-Oct-18 18:41 37.340529 -122.105178 340 5873ft 231kts
21-Oct-18 18:42 37.388581 -122.124084 341 4143ft 230kts
21-Oct-18 18:43 37.439071 -122.143944 340 4007ft 228kts
21-Oct-18 18:44 37.494887 -122.162309 344 3859ft 180kts
21-Oct-18 18:45 37.536270 -122.185605 307 2288ft 164kts
21-Oct-18 18:46 37.558416 -122.231797 297 1799ft 152kts
21-Oct-18 18:47 37.575803 -122.272929 297 1516ft 122kts
21-Oct-18 18:48 37.591085 -122.309215 297 898ft 116kts
21-Oct-18 18:49 37.606948 -122.347133 296 689ft 182kts
21-Oct-18 18:50 37.635335 -122.416785 295 3908ft 247kts
21-Oct-18 18:51 37.666575 -122.493916 295 3993ft 239kts
21-Oct-18 18:52 37.696776 -122.568428 295 3997ft 238kts
21-Oct-18 18:53 37.714208 -122.644646 239 3999ft 239kts
21-Oct-18 18:54 37.659231 -122.624495 120 4006ft 269kts
21-Oct-18 18:55 37.625774 -122.540780 118 4001ft 269kts
21-Oct-18 18:56 37.594608 -122.463151 118 3998ft 256kts
21-Oct-18 18:57 37.565512 -122.391456 118 4001ft 255kts
21-Oct-18 18:58 37.539510 -122.328694 118 3253ft 251kts
21-Oct-18 18:59 37.514512 -122.270040 118 3088ft 201kts
21-Oct-18 19:00 37.491331 -122.216130 118 3104ft 198kts
21-Oct-18 19:01 37.494636 -122.163066 22 3123ft 188kts
21-Oct-18 19:02 37.536877 -122.187250 323 2689ft 165kts
21-Oct-18 19:03 37.561063 -122.233930 295 2204ft 151kts
21-Oct-18 19:04 37.578404 -122.278347 297 1437ft 142kts
21-Oct-18 19:05 37.593964 -122.315978 297 785ft 118kts
21-Oct-18 19:06 37.608085 -122.349683 297 213ft 105kts
21-Oct-18 19:07 37.618523 -122.374618 297 20ft 52kts
21-Oct-18 19:08 37.623571 -122.382013 31 20ft 35kts
21-Oct-18 19:09 37.627526 -122.383162 349 20ft 8kts
21-Oct-18 19:10 37.627806 -122.383440 299 20ft 0kts
21-Oct-18 19:11 37.627806 -122.383440 299 20ft 0kts
21-Oct-18 19:12 37.627806 -122.383440 299 20ft 0kts

Navigation Log

Ident Type
Flight plan parsing failed, navigation log unavailable